地図

経路データ

SID SEASON NUMBER BASIN SUBBASIN NAME ISO_TIME NATURE LAT LON WMO_WIND WMO_PRES WMO_AGENCY TRACK_TYPE DIST2LAND LANDFALL IFLAG USA_AGENCY USA_ATCF_ID USA_LAT USA_LON USA_RECORD USA_STATUS USA_WIND USA_PRES USA_SSHS USA_R34_NE USA_R34_SE USA_R34_SW USA_R34_NW USA_R50_NE USA_R50_SE USA_R50_SW USA_R50_NW USA_R64_NE USA_R64_SE USA_R64_SW USA_R64_NW USA_POCI USA_ROCI USA_RMW USA_EYE TOKYO_LAT TOKYO_LON TOKYO_GRADE TOKYO_WIND TOKYO_PRES TOKYO_R50_DIR TOKYO_R50_LONG TOKYO_R50_SHORT TOKYO_R30_DIR TOKYO_R30_LONG TOKYO_R30_SHORT TOKYO_LAND CMA_LAT CMA_LON CMA_CAT CMA_WIND CMA_PRES HKO_LAT HKO_LON HKO_CAT HKO_WIND HKO_PRES NEWDELHI_LAT NEWDELHI_LON NEWDELHI_GRADE NEWDELHI_WIND NEWDELHI_PRES NEWDELHI_CI NEWDELHI_DP NEWDELHI_POCI REUNION_LAT REUNION_LON REUNION_TYPE REUNION_WIND REUNION_PRES REUNION_TNUM REUNION_CI REUNION_RMW REUNION_R34_NE REUNION_R34_SE REUNION_R34_SW REUNION_R34_NW REUNION_R50_NE REUNION_R50_SE REUNION_R50_SW REUNION_R50_NW REUNION_R64_NE REUNION_R64_SE REUNION_R64_SW REUNION_R64_NW BOM_LAT BOM_LON BOM_TYPE BOM_WIND BOM_PRES BOM_TNUM BOM_CI BOM_RMW BOM_R34_NE BOM_R34_SE BOM_R34_SW BOM_R34_NW BOM_R50_NE BOM_R50_SE BOM_R50_SW BOM_R50_NW BOM_R64_NE BOM_R64_SE BOM_R64_SW BOM_R64_NW BOM_ROCI BOM_POCI BOM_EYE BOM_POS_METHOD BOM_PRES_METHOD NADI_LAT NADI_LON NADI_CAT NADI_WIND NADI_PRES WELLINGTON_LAT WELLINGTON_LON WELLINGTON_WIND WELLINGTON_PRES DS824_LAT DS824_LON DS824_STAGE DS824_WIND DS824_PRES TD9636_LAT TD9636_LON TD9636_STAGE TD9636_WIND TD9636_PRES TD9635_LAT TD9635_LON TD9635_WIND TD9635_PRES TD9635_ROCI NEUMANN_LAT NEUMANN_LON NEUMANN_CLASS NEUMANN_WIND NEUMANN_PRES MLC_LAT MLC_LON MLC_CLASS MLC_WIND MLC_PRES USA_GUST BOM_GUST BOM_GUST_PER REUNION_GUST REUNION_GUST_PER USA_SEAHGT USA_SEARAD_NE USA_SEARAD_SE USA_SEARAD_SW USA_SEARAD_NW STORM_SPEED STORM_DIR
1908119S05134 1908 18 SI WA NOT_NAMED 1908-04-27 12:00:00 NR -5.00000 134.300 main 60 60 __________O___ -1 -5.00000 134.300 7 1 235
1908119S05134 1908 18 SI WA NOT_NAMED 1908-04-27 15:00:00 NR -5.03903 134.247 main 65 55 __________P___ -1 -5.03903 134.247 7 1 236
1908119S05134 1908 18 SI WA NOT_NAMED 1908-04-27 18:00:00 NR -5.08245 134.175 main 55 55 __________P___ -1 -5.08245 134.175 7 2 242
1908119S05134 1908 18 SI WA NOT_NAMED 1908-04-27 21:00:00 NR -5.13465 134.066 main 63 63 __________P___ -1 -5.13465 134.066 7 3 247
1908119S05134 1908 18 SI WA NOT_NAMED 1908-04-28 00:00:00 NR -5.20000 133.900 main 71 71 __________O___ -1 -5.20000 133.900 7 4 250
1908119S05134 1908 18 SI WA NOT_NAMED 1908-04-28 03:00:00 NR -5.28159 133.666 main 84 84 __________P___ -1 -5.28159 133.666 7 6 251
1908119S05134 1908 18 SI WA NOT_NAMED 1908-04-28 06:00:00 NR -5.37753 133.375 main 113 113 __________P___ -1 -5.37753 133.375 7 7 252
1908119S05134 1908 18 SI WA NOT_NAMED 1908-04-28 09:00:00 NR -5.48469 133.047 main 148 148 __________P___ -1 -5.48469 133.047 7 7 252
1908119S05134 1908 18 SI WA NOT_NAMED 1908-04-28 12:00:00 NR -5.60000 132.700 main 169 169 __________O___ -1 -5.60000 132.700 7 7 251
1908119S05134 1908 18 SI WA NOT_NAMED 1908-04-28 15:00:00 NR -5.71785 132.348 main 180 160 __________P___ -1 -5.71785 132.348 7 8 251
1908119S05134 1908 18 SI WA NOT_NAMED 1908-04-28 18:00:00 NR -5.84257 131.985 main 160 134 __________P___ -1 -5.84257 131.985 7 8 251
1908119S05134 1908 18 SI WA NOT_NAMED 1908-04-28 21:00:00 NR -5.97099 131.629 main 134 125 __________P___ -1 -5.97099 131.629 7 7 249
1908119S05134 1908 18 SI WA NOT_NAMED 1908-04-29 00:00:00 NR -6.10000 131.300 main 127 120 __________O___ -1 -6.10000 131.300 7 6 246
1908119S05134 1908 18 SI WA NOT_NAMED 1908-04-29 03:00:00 NR -6.23295 131.037 main 130 120 __________P___ -1 -6.23295 131.037 7 6 242
1908119S05134 1908 18 SI WA NOT_NAMED 1908-04-29 06:00:00 NR -6.36475 130.800 main 125 125 __________P___ -1 -6.36475 130.800 7 5 241
1908119S05134 1908 18 SI WA NOT_NAMED 1908-04-29 09:00:00 NR -6.48919 130.562 main 130 130 __________P___ -1 -6.48919 130.562 7 6 245
1908119S05134 1908 18 SI WA NOT_NAMED 1908-04-29 12:00:00 NR -6.60000 130.300 main 141 141 __________O___ -1 -6.60000 130.300 7 6 251
1908119S05134 1908 18 SI WA NOT_NAMED 1908-04-29 15:00:00 NR -6.68535 129.975 main 160 160 __________P___ -1 -6.68535 129.975 7 7 257
1908119S05134 1908 18 SI WA NOT_NAMED 1908-04-29 18:00:00 NR -6.75755 129.622 main 193 193 __________P___ -1 -6.75755 129.622 7 7 259
1908119S05134 1908 18 SI WA NOT_NAMED 1908-04-29 21:00:00 NR -6.82596 129.259 main 224 224 __________P___ -1 -6.82596 129.259 7 7 259
1908119S05134 1908 18 SI WA NOT_NAMED 1908-04-30 00:00:00 NR -6.90000 128.900 main 243 212 __________O___ -1 -6.90000 128.900 7 7 257
1908119S05134 1908 18 SI WA NOT_NAMED 1908-04-30 03:00:00 NR -6.98456 128.576 main 212 178 __________P___ -1 -6.98456 128.576 7 7 254
1908119S05134 1908 18 SI WA NOT_NAMED 1908-04-30 06:00:00 NR -7.07731 128.257 main 178 143 __________P___ -1 -7.07731 128.257 7 7 253
1908119S05134 1908 18 SI WA NOT_NAMED 1908-04-30 09:00:00 NR -7.18142 127.935 main 133 99 __________P___ -1 -7.18142 127.935 7 7 251
1908119S05134 1908 18 SI WA NOT_NAMED 1908-04-30 12:00:00 NR -7.30000 127.600 main 99 64 __________O___ -1 -7.30000 127.600 7 7 250
1908119S05134 1908 18 SI WA NOT_NAMED 1908-04-30 15:00:00 NR -7.43970 127.231 main 55 15 __________P___ -1 -7.43970 127.231 7 8 249
1908119S05134 1908 18 SI WA NOT_NAMED 1908-04-30 18:00:00 NR -7.59252 126.850 main 15 0 __________P___ -1 -7.59252 126.850 7 8 248
1908119S05134 1908 18 SI WA NOT_NAMED 1908-04-30 21:00:00 NR -7.74907 126.469 main 0 0 __________P___ -1 -7.74907 126.469 7 8 248
1908119S05134 1908 18 SI WA NOT_NAMED 1908-05-01 00:00:00 NR -7.90000 126.100 main 0 0 __________O___ -1 -7.90000 126.100 7 7 248
1908119S05134 1908 18 SI WA NOT_NAMED 1908-05-01 03:00:00 NR -8.02386 125.773 main 0 0 __________P___ -1 -8.02386 125.773 7 7 249
1908119S05134 1908 18 SI WA NOT_NAMED 1908-05-01 06:00:00 NR -8.14221 125.457 main 34 11 __________P___ -1 -8.14221 125.457 7 7 249
1908119S05134 1908 18 SI WA NOT_NAMED 1908-05-01 09:00:00 NR -8.26447 125.138 main 0 0 __________P___ -1 -8.26447 125.138 7 7 248
1908119S05134 1908 18 SI WA NOT_NAMED 1908-05-01 12:00:00 NR -8.40000 124.800 main 0 0 __________O___ -1 -8.40000 124.800 7 8 247
1908119S05134 1908 18 SI WA NOT_NAMED 1908-05-01 15:00:00 NR -8.55561 124.431 main 11 11 __________P___ -1 -8.55561 124.431 7 8 247
1908119S05134 1908 18 SI WA NOT_NAMED 1908-05-01 18:00:00 NR -8.72800 124.035 main 47 47 __________P___ -1 -8.72800 124.035 7 9 246
1908119S05134 1908 18 SI WA NOT_NAMED 1908-05-01 21:00:00 NR -8.91139 123.622 main 62 62 __________P___ -1 -8.91139 123.622 7 9 246
1908119S05134 1908 18 SI WA NOT_NAMED 1908-05-02 00:00:00 NR -9.10000 123.200 main 71 __________O___ -1 -9.10000 123.200 7 9 246

IBTrACS Databaseについて

本データベースは、米国NOAAが公開する1842年以降の世界の熱帯低気圧のベストトラックデータアーカイブInternational Best Track Archive for Climate Stewardship (IBTrACS)を、ウェブで閲覧しやすい形式に変換したものです。

最終更新日:2021-10-08